sensor_id;sensor_type;location;lat;lon;timestamp;pressure;altitude;pressure_sealevel;temperature;humidity
45345;BME280;31078;48.304;11.896;2023-07-22T00:02:21;96264.19;;;16.30;74.81
45345;BME280;31078;48.304;11.896;2023-07-22T00:04:48;96264.09;;;16.10;76.15
45345;BME280;31078;48.304;11.896;2023-07-22T00:07:15;96263.84;;;16.00;76.62
45345;BME280;31078;48.304;11.896;2023-07-22T00:09:42;96264.53;;;15.97;76.84
45345;BME280;31078;48.304;11.896;2023-07-22T00:12:09;96264.13;;;15.95;77.06
45345;BME280;31078;48.304;11.896;2023-07-22T00:14:39;96257.28;;;15.88;77.40
45345;BME280;31078;48.304;11.896;2023-07-22T00:17:07;96262.41;;;15.74;77.75
45345;BME280;31078;48.304;11.896;2023-07-22T00:19:34;96262.94;;;15.64;78.22
45345;BME280;31078;48.304;11.896;2023-07-22T00:22:01;96270.72;;;15.62;78.01
45345;BME280;31078;48.304;11.896;2023-07-22T00:24:27;96272.47;;;15.54;78.02
45345;BME280;31078;48.304;11.896;2023-07-22T00:26:54;96257.81;;;15.34;78.46
45345;BME280;31078;48.304;11.896;2023-07-22T00:29:20;96255.63;;;15.12;79.55
45345;BME280;31078;48.304;11.896;2023-07-22T00:31:48;96255.56;;;15.24;78.97
45345;BME280;31078;48.304;11.896;2023-07-22T00:34:15;96256.72;;;15.23;79.12
45345;BME280;31078;48.304;11.896;2023-07-22T00:36:42;96259.22;;;15.28;78.58
45345;BME280;31078;48.304;11.896;2023-07-22T00:39:09;96256.88;;;15.43;78.70
45345;BME280;31078;48.304;11.896;2023-07-22T00:41:36;96253.16;;;15.35;78.11
45345;BME280;31078;48.304;11.896;2023-07-22T00:44:03;96254.69;;;15.20;78.37
45345;BME280;31078;48.304;11.896;2023-07-22T00:46:29;96250.47;;;14.95;79.44
45345;BME280;31078;48.304;11.896;2023-07-22T00:48:57;96250.00;;;14.93;79.81
45345;BME280;31078;48.304;11.896;2023-07-22T00:51:24;96251.19;;;15.07;79.07
45345;BME280;31078;48.304;11.896;2023-07-22T00:53:50;96250.63;;;15.14;78.95
45345;BME280;31078;48.304;11.896;2023-07-22T00:56:17;96239.03;;;15.21;78.53
45345;BME280;31078;48.304;11.896;2023-07-22T00:58:44;96234.63;;;15.32;79.10
45345;BME280;31078;48.304;11.896;2023-07-22T01:01:10;96235.72;;;15.43;79.30
45345;BME280;31078;48.304;11.896;2023-07-22T01:03:37;96238.56;;;15.47;79.69
45345;BME280;31078;48.304;11.896;2023-07-22T01:06:05;96244.44;;;15.33;78.24
45345;BME280;31078;48.304;11.896;2023-07-22T01:08:32;96236.94;;;15.30;78.01
45345;BME280;31078;48.304;11.896;2023-07-22T01:10:58;96240.22;;;15.35;78.10
45345;BME280;31078;48.304;11.896;2023-07-22T01:13:25;96235.16;;;15.37;77.73
45345;BME280;31078;48.304;11.896;2023-07-22T01:15:52;96233.31;;;15.42;77.71
45345;BME280;31078;48.304;11.896;2023-07-22T01:18:18;96235.81;;;15.47;77.90
45345;BME280;31078;48.304;11.896;2023-07-22T01:20:45;96233.13;;;15.50;78.42
45345;BME280;31078;48.304;11.896;2023-07-22T01:23:13;96225.81;;;15.54;78.46
45345;BME280;31078;48.304;11.896;2023-07-22T01:25:40;96227.41;;;15.55;78.09
45345;BME280;31078;48.304;11.896;2023-07-22T01:28:09;96230.50;;;15.54;78.51
45345;BME280;31078;48.304;11.896;2023-07-22T01:30:36;96228.22;;;15.56;78.43
45345;BME280;31078;48.304;11.896;2023-07-22T01:33:03;96232.28;;;15.62;79.00
45345;BME280;31078;48.304;11.896;2023-07-22T01:35:29;96229.31;;;15.67;78.86
45345;BME280;31078;48.304;11.896;2023-07-22T01:37:56;96230.00;;;15.64;78.04
45345;BME280;31078;48.304;11.896;2023-07-22T01:40:24;96226.09;;;15.65;78.20
45345;BME280;31078;48.304;11.896;2023-07-22T01:42:51;96228.41;;;15.63;78.15
45345;BME280;31078;48.304;11.896;2023-07-22T01:45:18;96225.66;;;15.63;78.51
45345;BME280;31078;48.304;11.896;2023-07-22T01:47:44;96224.56;;;15.36;78.35
45345;BME280;31078;48.304;11.896;2023-07-22T01:50:11;96228.75;;;15.18;79.09
45345;BME280;31078;48.304;11.896;2023-07-22T01:52:38;96226.88;;;15.06;79.85
45345;BME280;31078;48.304;11.896;2023-07-22T01:55:05;96240.34;;;15.11;79.79
45345;BME280;31078;48.304;11.896;2023-07-22T01:57:37;96227.72;;;15.22;79.62
45345;BME280;31078;48.304;11.896;2023-07-22T02:00:06;96229.03;;;15.28;79.42
45345;BME280;31078;48.304;11.896;2023-07-22T02:02:36;96231.25;;;15.23;79.43
45345;BME280;31078;48.304;11.896;2023-07-22T02:05:03;96229.56;;;15.18;79.36
45345;BME280;31078;48.304;11.896;2023-07-22T02:07:29;96238.31;;;15.24;79.12
45345;BME280;31078;48.304;11.896;2023-07-22T02:09:56;96237.84;;;15.06;79.45
45345;BME280;31078;48.304;11.896;2023-07-22T02:12:23;96240.91;;;14.88;81.00
45345;BME280;31078;48.304;11.896;2023-07-22T02:14:51;96235.72;;;14.99;80.81
45345;BME280;31078;48.304;11.896;2023-07-22T02:17:17;96247.41;;;15.12;80.63
45345;BME280;31078;48.304;11.896;2023-07-22T02:19:45;96244.41;;;15.17;80.30
45345;BME280;31078;48.304;11.896;2023-07-22T02:22:12;96237.53;;;15.23;79.87
45345;BME280;31078;48.304;11.896;2023-07-22T02:24:38;96245.31;;;15.21;79.37
45345;BME280;31078;48.304;11.896;2023-07-22T02:27:05;96236.66;;;15.19;79.67
45345;BME280;31078;48.304;11.896;2023-07-22T02:29:33;96236.97;;;15.18;79.58
45345;BME280;31078;48.304;11.896;2023-07-22T02:32:02;96242.84;;;15.16;80.08
45345;BME280;31078;48.304;11.896;2023-07-22T02:34:28;96238.03;;;15.13;80.35
45345;BME280;31078;48.304;11.896;2023-07-22T02:36:55;96242.41;;;15.14;80.00
45345;BME280;31078;48.304;11.896;2023-07-22T02:39:21;96250.41;;;15.07;80.37
45345;BME280;31078;48.304;11.896;2023-07-22T02:41:48;96252.78;;;14.80;80.78
45345;BME280;31078;48.304;11.896;2023-07-22T02:44:14;96251.78;;;14.73;81.86
45345;BME280;31078;48.304;11.896;2023-07-22T02:46:41;96252.78;;;14.80;81.92
45345;BME280;31078;48.304;11.896;2023-07-22T02:49:09;96249.13;;;14.88;81.72
45345;BME280;31078;48.304;11.896;2023-07-22T02:51:36;96245.88;;;14.99;81.98
45345;BME280;31078;48.304;11.896;2023-07-22T02:54:02;96244.38;;;15.01;81.73
45345;BME280;31078;48.304;11.896;2023-07-22T02:56:29;96262.09;;;15.04;81.29
45345;BME280;31078;48.304;11.896;2023-07-22T02:58:56;96253.84;;;15.04;81.50
45345;BME280;31078;48.304;11.896;2023-07-22T03:01:23;96248.81;;;15.06;81.21
45345;BME280;31078;48.304;11.896;2023-07-22T03:03:49;96256.59;;;15.04;81.11
45345;BME280;31078;48.304;11.896;2023-07-22T03:06:18;96254.91;;;14.99;81.58
45345;BME280;31078;48.304;11.896;2023-07-22T03:08:44;96265.06;;;14.99;81.71
45345;BME280;31078;48.304;11.896;2023-07-22T03:11:11;96259.59;;;14.99;81.65
45345;BME280;31078;48.304;11.896;2023-07-22T03:13:37;96260.63;;;14.94;82.18
45345;BME280;31078;48.304;11.896;2023-07-22T03:16:04;96255.94;;;14.54;84.20
45345;BME280;31078;48.304;11.896;2023-07-22T03:18:30;96265.44;;;14.57;84.38
45345;BME280;31078;48.304;11.896;2023-07-22T03:20:57;96264.03;;;14.63;83.97
45345;BME280;31078;48.304;11.896;2023-07-22T03:23:25;96263.38;;;14.54;84.55
45345;BME280;31078;48.304;11.896;2023-07-22T03:25:51;96255.56;;;14.68;84.48
45345;BME280;31078;48.304;11.896;2023-07-22T03:28:18;96258.63;;;14.79;84.65
45345;BME280;31078;48.304;11.896;2023-07-22T03:30:44;96268.31;;;14.76;84.06
45345;BME280;31078;48.304;11.896;2023-07-22T03:33:11;96263.69;;;14.65;83.94
45345;BME280;31078;48.304;11.896;2023-07-22T03:35:37;96260.34;;;14.71;83.68
45345;BME280;31078;48.304;11.896;2023-07-22T03:38:04;96258.63;;;14.79;84.08
45345;BME280;31078;48.304;11.896;2023-07-22T03:40:32;96257.13;;;14.81;83.80
45345;BME280;31078;48.304;11.896;2023-07-22T03:42:59;96266.06;;;14.78;83.55
45345;BME280;31078;48.304;11.896;2023-07-22T03:45:26;96259.94;;;14.57;83.78
45345;BME280;31078;48.304;11.896;2023-07-22T03:47:55;96255.94;;;14.30;85.70
45345;BME280;31078;48.304;11.896;2023-07-22T03:50:23;96264.25;;;14.46;85.44
45345;BME280;31078;48.304;11.896;2023-07-22T03:52:49;96265.44;;;14.57;85.35
45345;BME280;31078;48.304;11.896;2023-07-22T03:55:16;96273.84;;;14.64;84.42
45345;BME280;31078;48.304;11.896;2023-07-22T03:57:46;96280.81;;;14.61;84.48
45345;BME280;31078;48.304;11.896;2023-07-22T04:00:12;96288.00;;;14.66;84.63
45345;BME280;31078;48.304;11.896;2023-07-22T04:02:39;96286.88;;;14.67;84.21
45345;BME280;31078;48.304;11.896;2023-07-22T04:05:06;96284.81;;;14.64;84.17
45345;BME280;31078;48.304;11.896;2023-07-22T04:07:33;96290.72;;;14.66;84.44
45345;BME280;31078;48.304;11.896;2023-07-22T04:10:00;96285.25;;;14.66;84.58
45345;BME280;31078;48.304;11.896;2023-07-22T04:12:27;96300.22;;;14.69;84.93
45345;BME280;31078;48.304;11.896;2023-07-22T04:14:56;96287.88;;;14.75;85.22
45345;BME280;31078;48.304;11.896;2023-07-22T04:17:23;96287.06;;;14.74;84.84
45345;BME280;31078;48.304;11.896;2023-07-22T04:19:51;96280.91;;;14.77;85.06
45345;BME280;31078;48.304;11.896;2023-07-22T04:22:18;96288.53;;;14.84;85.07
45345;BME280;31078;48.304;11.896;2023-07-22T04:24:45;96295.16;;;14.83;84.97
45345;BME280;31078;48.304;11.896;2023-07-22T04:27:13;96297.13;;;14.70;84.97
45345;BME280;31078;48.304;11.896;2023-07-22T04:29:40;96297.34;;;14.77;85.02
45345;BME280;31078;48.304;11.896;2023-07-22T04:32:08;96302.94;;;14.81;85.12
45345;BME280;31078;48.304;11.896;2023-07-22T04:34:35;96299.81;;;14.82;84.96
45345;BME280;31078;48.304;11.896;2023-07-22T04:37:01;96296.28;;;14.82;84.54
45345;BME280;31078;48.304;11.896;2023-07-22T04:39:29;96300.19;;;14.81;84.89
45345;BME280;31078;48.304;11.896;2023-07-22T04:41:55;96299.03;;;14.82;84.69
45345;BME280;31078;48.304;11.896;2023-07-22T04:44:22;96301.22;;;14.88;84.92
45345;BME280;31078;48.304;11.896;2023-07-22T04:46:49;96298.47;;;14.88;84.97
45345;BME280;31078;48.304;11.896;2023-07-22T04:49:17;96302.09;;;14.93;85.12
45345;BME280;31078;48.304;11.896;2023-07-22T04:51:44;96305.06;;;15.00;85.43
45345;BME280;31078;48.304;11.896;2023-07-22T04:54:11;96300.56;;;15.07;85.89
45345;BME280;31078;48.304;11.896;2023-07-22T04:56:37;96302.25;;;15.12;85.92
45345;BME280;31078;48.304;11.896;2023-07-22T04:59:04;96300.66;;;15.11;85.35
45345;BME280;31078;48.304;11.896;2023-07-22T05:01:31;96302.13;;;15.21;85.50
45345;BME280;31078;48.304;11.896;2023-07-22T05:03:58;96299.47;;;15.24;85.24
45345;BME280;31078;48.304;11.896;2023-07-22T05:06:28;96287.13;;;15.30;84.95
45345;BME280;31078;48.304;11.896;2023-07-22T05:08:54;96298.63;;;15.36;84.70
45345;BME280;31078;48.304;11.896;2023-07-22T05:11:21;96291.38;;;15.44;84.74
45345;BME280;31078;48.304;11.896;2023-07-22T05:13:48;96283.34;;;15.51;84.53
45345;BME280;31078;48.304;11.896;2023-07-22T05:16:15;96292.03;;;15.53;85.27
45345;BME280;31078;48.304;11.896;2023-07-22T05:18:42;96291.78;;;15.58;86.33
45345;BME280;31078;48.304;11.896;2023-07-22T05:21:08;96297.69;;;15.72;86.35
45345;BME280;31078;48.304;11.896;2023-07-22T05:23:36;96299.69;;;15.75;85.63
45345;BME280;31078;48.304;11.896;2023-07-22T05:26:03;96299.31;;;15.61;85.92
45345;BME280;31078;48.304;11.896;2023-07-22T05:28:30;96299.44;;;15.80;85.55
45345;BME280;31078;48.304;11.896;2023-07-22T05:30:56;96304.41;;;15.75;85.44
45345;BME280;31078;48.304;11.896;2023-07-22T05:33:23;96305.13;;;15.87;85.50
45345;BME280;31078;48.304;11.896;2023-07-22T05:35:50;96309.78;;;15.71;87.09
45345;BME280;31078;48.304;11.896;2023-07-22T05:38:16;96308.72;;;15.76;86.88
45345;BME280;31078;48.304;11.896;2023-07-22T05:40:44;96304.75;;;15.73;87.30
45345;BME280;31078;48.304;11.896;2023-07-22T05:43:11;96315.00;;;15.76;87.32
45345;BME280;31078;48.304;11.896;2023-07-22T05:45:38;96322.47;;;15.91;87.35
45345;BME280;31078;48.304;11.896;2023-07-22T05:48:05;96320.91;;;15.62;87.87
45345;BME280;31078;48.304;11.896;2023-07-22T05:50:32;96320.88;;;15.75;88.26
45345;BME280;31078;48.304;11.896;2023-07-22T05:52:58;96324.09;;;15.93;87.74
45345;BME280;31078;48.304;11.896;2023-07-22T05:55:25;96320.19;;;16.09;87.32
45345;BME280;31078;48.304;11.896;2023-07-22T05:57:54;96321.25;;;16.05;87.71
45345;BME280;31078;48.304;11.896;2023-07-22T06:00:21;96319.94;;;16.14;88.07
45345;BME280;31078;48.304;11.896;2023-07-22T06:02:47;96321.00;;;16.10;89.32
45345;BME280;31078;48.304;11.896;2023-07-22T06:05:14;96313.81;;;16.21;89.00
45345;BME280;31078;48.304;11.896;2023-07-22T06:07:41;96309.22;;;16.25;89.33
45345;BME280;31078;48.304;11.896;2023-07-22T06:10:08;96304.50;;;16.26;89.51
45345;BME280;31078;48.304;11.896;2023-07-22T06:12:35;96310.28;;;16.21;89.65
45345;BME280;31078;48.304;11.896;2023-07-22T06:15:04;96320.72;;;16.15;89.43
45345;BME280;31078;48.304;11.896;2023-07-22T06:17:30;96314.97;;;16.20;90.05
45345;BME280;31078;48.304;11.896;2023-07-22T06:19:57;96316.19;;;16.38;90.28
45345;BME280;31078;48.304;11.896;2023-07-22T06:22:23;96316.16;;;16.54;89.68
45345;BME280;31078;48.304;11.896;2023-07-22T06:24:50;96324.78;;;16.53;86.72
45345;BME280;31078;48.304;11.896;2023-07-22T06:27:17;96316.88;;;16.51;85.47
45345;BME280;31078;48.304;11.896;2023-07-22T06:29:43;96327.69;;;16.60;85.05
45345;BME280;31078;48.304;11.896;2023-07-22T06:32:11;96333.19;;;16.76;85.28
45345;BME280;31078;48.304;11.896;2023-07-22T06:34:38;96326.41;;;16.89;84.61
45345;BME280;31078;48.304;11.896;2023-07-22T06:37:05;96331.31;;;16.80;82.86
45345;BME280;31078;48.304;11.896;2023-07-22T06:39:31;96333.25;;;16.79;82.59
45345;BME280;31078;48.304;11.896;2023-07-22T06:41:58;96327.63;;;16.72;82.17
45345;BME280;31078;48.304;11.896;2023-07-22T06:44:24;96335.19;;;16.94;82.61
45345;BME280;31078;48.304;11.896;2023-07-22T06:46:51;96333.03;;;17.04;81.26
45345;BME280;31078;48.304;11.896;2023-07-22T06:49:19;96329.78;;;17.17;80.65
45345;BME280;31078;48.304;11.896;2023-07-22T06:51:45;96331.28;;;17.15;75.92
45345;BME280;31078;48.304;11.896;2023-07-22T06:54:12;96339.13;;;17.32;75.47
45345;BME280;31078;48.304;11.896;2023-07-22T06:56:38;96342.03;;;17.39;72.97
45345;BME280;31078;48.304;11.896;2023-07-22T06:59:05;96343.03;;;17.51;73.54
45345;BME280;31078;48.304;11.896;2023-07-22T07:01:31;96349.72;;;17.50;71.52
45345;BME280;31078;48.304;11.896;2023-07-22T07:03:58;96341.28;;;17.62;70.00
45345;BME280;31078;48.304;11.896;2023-07-22T07:06:25;96349.84;;;17.57;66.41
45345;BME280;31078;48.304;11.896;2023-07-22T07:08:52;96346.50;;;17.67;67.17
45345;BME280;31078;48.304;11.896;2023-07-22T07:11:18;96345.72;;;17.86;67.39
45345;BME280;31078;48.304;11.896;2023-07-22T07:13:45;96352.22;;;17.97;66.42
45345;BME280;31078;48.304;11.896;2023-07-22T07:16:21;96348.97;;;17.91;65.33
45345;BME280;31078;48.304;11.896;2023-07-22T07:18:49;96342.88;;;18.02;66.06
45345;BME280;31078;48.304;11.896;2023-07-22T07:21:16;96359.19;;;17.91;65.52
45345;BME280;31078;48.304;11.896;2023-07-22T07:23:44;96349.81;;;17.95;66.74
45345;BME280;31078;48.304;11.896;2023-07-22T07:26:11;96355.47;;;18.03;64.03
45345;BME280;31078;48.304;11.896;2023-07-22T07:28:37;96351.34;;;18.16;63.32
45345;BME280;31078;48.304;11.896;2023-07-22T07:31:04;96353.94;;;18.28;62.00
45345;BME280;31078;48.304;11.896;2023-07-22T07:33:31;96354.25;;;18.23;59.95
45345;BME280;31078;48.304;11.896;2023-07-22T07:35:57;96355.91;;;18.28;59.73
45345;BME280;31078;48.304;11.896;2023-07-22T07:38:24;96363.19;;;18.39;58.47
45345;BME280;31078;48.304;11.896;2023-07-22T07:40:53;96359.28;;;18.40;58.72
45345;BME280;31078;48.304;11.896;2023-07-22T07:43:19;96356.88;;;18.39;59.84
45345;BME280;31078;48.304;11.896;2023-07-22T07:45:46;96359.28;;;18.40;60.58
45345;BME280;31078;48.304;11.896;2023-07-22T07:48:12;96353.84;;;18.47;59.90
45345;BME280;31078;48.304;11.896;2023-07-22T07:50:39;96352.50;;;18.61;59.16
45345;BME280;31078;48.304;11.896;2023-07-22T07:53:05;96356.09;;;18.88;59.06
45345;BME280;31078;48.304;11.896;2023-07-22T07:55:32;96360.28;;;18.78;59.16
45345;BME280;31078;48.304;11.896;2023-07-22T07:58:00;96368.84;;;18.96;59.07
45345;BME280;31078;48.304;11.896;2023-07-22T08:00:26;96363.41;;;19.03;57.37
45345;BME280;31078;48.304;11.896;2023-07-22T08:02:53;96358.75;;;19.07;58.92
45345;BME280;31078;48.304;11.896;2023-07-22T08:05:20;96359.69;;;19.18;58.34
45345;BME280;31078;48.304;11.896;2023-07-22T08:07:46;96366.22;;;19.37;59.45
45345;BME280;31078;48.304;11.896;2023-07-22T08:10:13;96354.25;;;19.55;58.90
45345;BME280;31078;48.304;11.896;2023-07-22T08:12:40;96369.81;;;19.67;56.65
45345;BME280;31078;48.304;11.896;2023-07-22T08:15:08;96358.47;;;19.76;57.60
45345;BME280;31078;48.304;11.896;2023-07-22T08:17:35;96365.56;;;20.11;58.58
45345;BME280;31078;48.304;11.896;2023-07-22T08:20:02;96367.25;;;20.22;52.40
45345;BME280;31078;48.304;11.896;2023-07-22T08:22:29;96369.03;;;20.41;54.61
45345;BME280;31078;48.304;11.896;2023-07-22T08:24:56;96362.06;;;20.62;50.83
45345;BME280;31078;48.304;11.896;2023-07-22T08:27:22;96366.97;;;20.79;52.17
45345;BME280;31078;48.304;11.896;2023-07-22T08:29:49;96366.66;;;20.91;51.52
45345;BME280;31078;48.304;11.896;2023-07-22T08:32:17;96357.25;;;20.51;50.93
45345;BME280;31078;48.304;11.896;2023-07-22T08:34:43;96359.22;;;20.47;51.23
45345;BME280;31078;48.304;11.896;2023-07-22T08:37:10;96364.25;;;20.86;50.57
45345;BME280;31078;48.304;11.896;2023-07-22T08:39:37;96367.97;;;21.11;49.30
45345;BME280;31078;48.304;11.896;2023-07-22T08:42:04;96370.22;;;20.88;50.37
45345;BME280;31078;48.304;11.896;2023-07-22T08:44:32;96360.38;;;20.94;50.08
45345;BME280;31078;48.304;11.896;2023-07-22T08:47:01;96359.16;;;20.88;48.51
45345;BME280;31078;48.304;11.896;2023-07-22T08:49:30;96356.41;;;20.95;47.46
45345;BME280;31078;48.304;11.896;2023-07-22T08:51:57;96364.81;;;21.09;47.83
45345;BME280;31078;48.304;11.896;2023-07-22T08:54:25;96359.44;;;21.34;48.25
45345;BME280;31078;48.304;11.896;2023-07-22T08:56:53;96361.47;;;21.48;49.51
45345;BME280;31078;48.304;11.896;2023-07-22T08:59:20;96357.50;;;21.42;47.01
45345;BME280;31078;48.304;11.896;2023-07-22T09:01:47;96360.38;;;21.71;46.15
45345;BME280;31078;48.304;11.896;2023-07-22T09:04:14;96359.19;;;21.65;46.49
45345;BME280;31078;48.304;11.896;2023-07-22T09:06:43;96360.44;;;21.78;48.00
45345;BME280;31078;48.304;11.896;2023-07-22T09:09:10;96358.81;;;21.70;45.94
45345;BME280;31078;48.304;11.896;2023-07-22T09:11:38;96364.06;;;22.00;46.20
45345;BME280;31078;48.304;11.896;2023-07-22T09:14:04;96365.50;;;21.61;45.07
45345;BME280;31078;48.304;11.896;2023-07-22T09:16:32;96363.50;;;21.51;46.04
45345;BME280;31078;48.304;11.896;2023-07-22T09:18:58;96353.16;;;21.45;45.90
45345;BME280;31078;48.304;11.896;2023-07-22T09:21:25;96350.09;;;21.75;46.45
45345;BME280;31078;48.304;11.896;2023-07-22T09:23:54;96347.00;;;22.01;47.20
45345;BME280;31078;48.304;11.896;2023-07-22T09:26:21;96344.72;;;22.21;46.40
45345;BME280;31078;48.304;11.896;2023-07-22T09:28:51;96344.34;;;22.40;44.50
45345;BME280;31078;48.304;11.896;2023-07-22T09:31:18;96336.81;;;22.55;44.89
45345;BME280;31078;48.304;11.896;2023-07-22T09:33:45;96350.25;;;22.39;44.36
45345;BME280;31078;48.304;11.896;2023-07-22T09:36:12;96336.78;;;22.20;43.88
45345;BME280;31078;48.304;11.896;2023-07-22T09:38:39;96343.47;;;22.04;43.65
45345;BME280;31078;48.304;11.896;2023-07-22T09:41:07;96341.56;;;22.19;44.77
45345;BME280;31078;48.304;11.896;2023-07-22T09:43:36;96349.47;;;22.31;44.91
45345;BME280;31078;48.304;11.896;2023-07-22T09:46:08;96345.94;;;22.45;44.27
45345;BME280;31078;48.304;11.896;2023-07-22T09:48:42;96339.97;;;22.36;44.39
45345;BME280;31078;48.304;11.896;2023-07-22T09:51:14;96337.56;;;22.17;44.01
45345;BME280;31078;48.304;11.896;2023-07-22T09:53:45;96342.72;;;22.14;43.29
45345;BME280;31078;48.304;11.896;2023-07-22T09:56:13;96331.13;;;21.84;43.46
45345;BME280;31078;48.304;11.896;2023-07-22T09:58:40;96330.06;;;22.21;44.67
45345;BME280;31078;48.304;11.896;2023-07-22T10:01:07;96334.34;;;22.07;41.93
45345;BME280;31078;48.304;11.896;2023-07-22T10:03:37;96330.34;;;21.87;43.99
45345;BME280;31078;48.304;11.896;2023-07-22T10:06:05;96333.47;;;21.75;43.72
45345;BME280;31078;48.304;11.896;2023-07-22T10:08:34;96333.78;;;21.48;44.82
45345;BME280;31078;48.304;11.896;2023-07-22T10:11:03;96323.19;;;21.72;45.76
45345;BME280;31078;48.304;11.896;2023-07-22T10:13:33;96320.88;;;21.95;44.79
45345;BME280;31078;48.304;11.896;2023-07-22T10:16:00;96320.88;;;22.06;43.63
45345;BME280;31078;48.304;11.896;2023-07-22T10:18:27;96325.28;;;22.21;43.72
45345;BME280;31078;48.304;11.896;2023-07-22T10:20:55;96308.25;;;22.44;41.95
45345;BME280;31078;48.304;11.896;2023-07-22T10:23:23;96306.69;;;22.72;42.19
45345;BME280;31078;48.304;11.896;2023-07-22T10:25:52;96319.34;;;22.80;41.25
45345;BME280;31078;48.304;11.896;2023-07-22T10:28:22;96315.38;;;22.99;39.77
45345;BME280;31078;48.304;11.896;2023-07-22T10:30:51;96309.84;;;22.74;39.30
45345;BME280;31078;48.304;11.896;2023-07-22T10:33:18;96313.81;;;22.94;40.29
45345;BME280;31078;48.304;11.896;2023-07-22T10:36:02;96300.25;;;23.17;39.64
45345;BME280;31078;48.304;11.896;2023-07-22T10:38:30;96296.25;;;23.26;40.39
45345;BME280;31078;48.304;11.896;2023-07-22T10:40:57;96303.00;;;23.25;38.33
45345;BME280;31078;48.304;11.896;2023-07-22T10:43:26;96308.94;;;23.34;38.85
45345;BME280;31078;48.304;11.896;2023-07-22T10:45:56;96299.06;;;23.11;37.52
45345;BME280;31078;48.304;11.896;2023-07-22T10:48:26;96300.31;;;22.89;39.91
45345;BME280;31078;48.304;11.896;2023-07-22T10:50:58;96304.69;;;22.90;39.94
45345;BME280;31078;48.304;11.896;2023-07-22T10:53:31;96307.06;;;22.59;39.71
45345;BME280;31078;48.304;11.896;2023-07-22T10:56:11;96291.53;;;23.19;40.33
45345;BME280;31078;48.304;11.896;2023-07-22T10:59:00;96294.53;;;23.60;40.91
45345;BME280;31078;48.304;11.896;2023-07-22T11:01:44;96286.69;;;23.37;40.48
45345;BME280;31078;48.304;11.896;2023-07-22T11:04:14;96284.81;;;23.09;40.94
45345;BME280;31078;48.304;11.896;2023-07-22T11:06:55;96288.38;;;23.06;42.29
45345;BME280;31078;48.304;11.896;2023-07-22T11:09:40;96289.59;;;22.70;40.40
45345;BME280;31078;48.304;11.896;2023-07-22T11:12:12;96284.06;;;22.62;42.15
45345;BME280;31078;48.304;11.896;2023-07-22T11:14:45;96278.13;;;22.67;40.79
45345;BME280;31078;48.304;11.896;2023-07-22T11:17:14;96285.47;;;23.42;42.08
45345;BME280;31078;48.304;11.896;2023-07-22T11:19:41;96273.09;;;23.64;40.57
45345;BME280;31078;48.304;11.896;2023-07-22T11:22:07;96278.66;;;23.64;39.73
45345;BME280;31078;48.304;11.896;2023-07-22T11:24:34;96271.63;;;23.28;40.52
45345;BME280;31078;48.304;11.896;2023-07-22T11:27:03;96264.44;;;23.41;40.85
45345;BME280;31078;48.304;11.896;2023-07-22T11:29:30;96256.81;;;23.59;39.61
45345;BME280;31078;48.304;11.896;2023-07-22T11:31:56;96254.84;;;23.56;40.84
45345;BME280;31078;48.304;11.896;2023-07-22T11:34:25;96260.44;;;23.49;40.76
45345;BME280;31078;48.304;11.896;2023-07-22T11:36:52;96253.25;;;23.66;39.49
45345;BME280;31078;48.304;11.896;2023-07-22T11:39:20;96252.75;;;23.78;39.80
45345;BME280;31078;48.304;11.896;2023-07-22T11:41:48;96259.16;;;23.72;38.21
45345;BME280;31078;48.304;11.896;2023-07-22T11:44:18;96254.81;;;23.63;38.52
45345;BME280;31078;48.304;11.896;2023-07-22T11:46:52;96255.72;;;23.39;37.99
45345;BME280;31078;48.304;11.896;2023-07-22T11:49:25;96246.94;;;23.48;38.79
45345;BME280;31078;48.304;11.896;2023-07-22T11:51:54;96245.38;;;23.47;38.08
45345;BME280;31078;48.304;11.896;2023-07-22T11:54:21;96240.53;;;23.61;39.92
45345;BME280;31078;48.304;11.896;2023-07-22T11:56:48;96234.81;;;23.90;38.53
45345;BME280;31078;48.304;11.896;2023-07-22T11:59:14;96238.59;;;24.17;36.45
45345;BME280;31078;48.304;11.896;2023-07-22T12:01:43;96235.06;;;24.06;37.04
45345;BME280;31078;48.304;11.896;2023-07-22T12:04:11;96222.97;;;23.79;38.29
45345;BME280;31078;48.304;11.896;2023-07-22T12:06:39;96227.81;;;23.64;37.85
45345;BME280;31078;48.304;11.896;2023-07-22T12:09:07;96220.28;;;23.64;37.06
45345;BME280;31078;48.304;11.896;2023-07-22T12:11:35;96220.97;;;23.83;38.45
45345;BME280;31078;48.304;11.896;2023-07-22T12:14:06;96222.25;;;23.67;36.64
45345;BME280;31078;48.304;11.896;2023-07-22T12:16:35;96225.41;;;23.69;36.60
45345;BME280;31078;48.304;11.896;2023-07-22T12:19:02;96208.03;;;23.51;39.03
45345;BME280;31078;48.304;11.896;2023-07-22T12:21:29;96212.84;;;23.40;36.69
45345;BME280;31078;48.304;11.896;2023-07-22T12:23:58;96205.72;;;23.39;37.88
45345;BME280;31078;48.304;11.896;2023-07-22T12:26:24;96203.25;;;23.55;37.52
45345;BME280;31078;48.304;11.896;2023-07-22T12:28:51;96210.91;;;23.96;38.47
45345;BME280;31078;48.304;11.896;2023-07-22T12:31:18;96207.66;;;24.08;37.07
45345;BME280;31078;48.304;11.896;2023-07-22T12:33:44;96202.34;;;24.25;35.46
45345;BME280;31078;48.304;11.896;2023-07-22T12:36:11;96199.91;;;24.34;36.23
45345;BME280;31078;48.304;11.896;2023-07-22T12:38:38;96200.28;;;24.36;33.64
45345;BME280;31078;48.304;11.896;2023-07-22T12:41:05;96211.19;;;24.61;32.87
45345;BME280;31078;48.304;11.896;2023-07-22T12:43:32;96199.38;;;24.50;35.36
45345;BME280;31078;48.304;11.896;2023-07-22T12:46:00;96204.19;;;24.45;34.22
45345;BME280;31078;48.304;11.896;2023-07-22T12:48:26;96208.81;;;24.59;33.96
45345;BME280;31078;48.304;11.896;2023-07-22T12:50:53;96192.53;;;24.09;35.48
45345;BME280;31078;48.304;11.896;2023-07-22T12:53:19;96198.44;;;24.18;36.08